KMWH

Grant Co International Airport

Moses Lake, Washington, USA
KMWH 241731Z 2418/2518 24008KT P6SM SKC FM250500 35003KT P6SM FEW250
Issued Valid From Valid To
Sep-24 @ 17:31 UTC
(2 hours ago)
Sep-24 @ 18:00 UTC
(an hour ago)
Sep-25 @ 18:00 UTC
(in 23 hours)
Sep-24 @ 18:00 to Sep-25 @ 05:00
KMWH 241731Z 2418/2518 24008KT P6SM SKC
Wind Visibility Clouds
240° at 8 knots Greater than 6 miles
  • Clear skies
From Sep-25 @ 05:00 to Sep-25 @ 18:00
FM250500 35003KT P6SM FEW250
Wind Visibility Clouds
350° at 3 knots Greater than 6 miles
  • Few at 25,000' AGL
KMWH 241731Z 2418/2518 24008KT P6SM SKC FM250500 35003KT P6SM FEW250
Issued Sep-24 @ 17:31 UTC
(2 hours ago)
Valid From Sep-24 @ 18:00 UTC
(an hour ago)
Valid To Sep-25 @ 18:00 UTC
(in 23 hours)
Sep-24 @ 18:00 - Sep-25 @ 05:00
Wind Visibility
240° at 8 knots Greater than 6 miles
Clouds
  • Clear skies
From Sep-25 @ 05:00 - Sep-25 @ 18:00
Wind Visibility
350° at 3 knots Greater than 6 miles
Clouds
  • Few at 25,000' AGL